Time;durP1;ratioP1;P1;durP2;ratioP2;P2;SDS_P1;SDS_P2;PMS_P1;PMS_P2;Temp;Humidity;BMP_temperature;BMP_pressure;BME280_temperature;BME280_humidity;BME280_pressure;Samples;Min_cycle;Max_cycle;Signal;HPM_P1;HPM_P2
2021/03/17 00:00:36;;;;;;;8.25;6.07;;;5.60;99.90;;;;;;5016063;28;20022;-77
2021/03/17 00:03:02;;;;;;;9.35;5.93;;;5.40;99.90;;;;;;5017815;28;20097;-76
2021/03/17 00:05:33;;;;;;;8.80;5.97;;;5.40;99.90;;;;;;5032779;28;20073;-78
2021/03/17 00:07:59;;;;;;;10.32;6.05;;;;;;;;;;5020444;28;20034;-77
2021/03/17 00:10:27;;;;;;;8.10;5.82;;;5.40;99.90;;;;;;5019815;28;20048;-77
2021/03/17 00:12:54;;;;;;;8.07;5.95;;;5.40;99.90;;;;;;5013650;28;20033;-76
2021/03/17 00:15:22;;;;;;;9.93;6.93;;;5.40;99.90;;;;;;5019035;28;20445;-77
2021/03/17 00:17:48;;;;;;;8.93;6.35;;;5.40;99.90;;;;;;5015806;28;20486;-76
2021/03/17 00:20:14;;;;;;;9.77;7.10;;;5.50;99.90;;;;;;5017758;28;20156;-77
2021/03/17 00:22:40;;;;;;;10.25;7.60;;;;;;;;;;5023474;28;20058;-77
2021/03/17 00:25:07;;;;;;;11.77;8.23;;;5.40;99.90;;;;;;5013832;28;20041;-75
2021/03/17 00:27:33;;;;;;;12.15;7.90;;;5.50;99.90;;;;;;5003377;28;20036;-76
2021/03/17 00:29:58;;;;;;;11.25;7.15;;;5.40;99.90;;;;;;5016450;28;20038;-76
2021/03/17 00:32:24;;;;;;;9.77;6.60;;;5.40;99.90;;;;;;5006339;28;20069;-76
2021/03/17 00:34:50;;;;;;;8.80;6.40;;;;;;;;;;5020064;28;20045;-76
2021/03/17 00:37:16;;;;;;;9.73;6.57;;;;;;;;;;5015282;28;20033;-77
2021/03/17 00:39:42;;;;;;;9.77;6.93;;;5.50;99.90;;;;;;5018422;28;20042;-76
2021/03/17 00:42:07;;;;;;;10.30;7.22;;;5.50;99.90;;;;;;5020790;28;20046;-75
2021/03/17 00:44:33;;;;;;;11.43;7.55;;;5.50;99.90;;;;;;5026303;28;20076;-76
2021/03/17 00:46:58;;;;;;;10.05;7.32;;;5.50;99.90;;;;;;5023931;28;20125;-77
2021/03/17 00:49:24;;;;;;;10.27;7.25;;;5.50;99.90;;;;;;5025994;28;20048;-78
2021/03/17 00:51:50;;;;;;;10.23;7.57;;;;;;;;;;5004455;28;20495;-80
2021/03/17 00:54:17;;;;;;;11.57;7.95;;;5.50;99.90;;;;;;5022455;28;20136;-76
2021/03/17 00:56:42;;;;;;;11.95;8.45;;;;;;;;;;5018387;28;20060;-77
2021/03/17 00:59:08;;;;;;;14.18;8.48;;;;;;;;;;5032239;28;20037;-76
2021/03/17 01:01:35;;;;;;;13.63;9.40;;;;;;;;;;5018004;28;20167;-77
2021/03/17 01:04:00;;;;;;;13.57;8.43;;;5.40;99.90;;;;;;5019234;28;20028;-76
2021/03/17 01:06:26;;;;;;;11.90;8.00;;;;;;;;;;5020603;28;20041;-75
2021/03/17 01:08:52;;;;;;;13.43;8.68;;;5.20;99.90;;;;;;5001765;28;20069;-80
2021/03/17 01:11:17;;;;;;;12.60;8.55;;;6.70;99.90;;;;;;5020865;28;20041;-76
2021/03/17 01:13:43;;;;;;;12.50;8.27;;;5.30;99.90;;;;;;5022809;28;20049;-75
2021/03/17 01:16:09;;;;;;;10.93;7.50;;;5.30;99.90;;;;;;5023892;28;20083;-76
2021/03/17 01:18:35;;;;;;;11.82;7.57;;;;;;;;;;5020879;28;20079;-79
2021/03/17 01:21:01;;;;;;;12.73;8.15;;;;;;;;;;5018862;28;20498;-78
2021/03/17 01:23:27;;;;;;;12.98;8.57;;;;;;;;;;5013214;28;20025;-78
2021/03/17 01:25:53;;;;;;;13.45;8.18;;;;;;;;;;5014612;28;20525;-75
2021/03/17 01:28:19;;;;;;;14.90;8.90;;;;;;;;;;5010566;28;20063;-78
2021/03/17 01:30:50;;;;;;;15.80;8.90;;;5.30;99.90;;;;;;5012646;28;20037;-76
2021/03/17 01:33:17;;;;;;;14.35;8.85;;;5.20;99.90;;;;;;5031262;28;20226;-76
2021/03/17 01:35:47;;;;;;;15.43;8.32;;;5.20;99.90;;;;;;5015398;28;20249;-76
2021/03/17 01:38:13;;;;;;;15.13;8.55;;;5.20;99.90;;;;;;5015892;28;20442;-77
2021/03/17 01:40:43;;;;;;;13.73;8.20;;;5.20;99.90;;;;;;5019580;28;20045;-76
2021/03/17 01:43:10;;;;;;;13.23;8.35;;;5.30;99.90;;;;;;5023618;28;20046;-77
2021/03/17 01:45:36;;;;;;;14.68;8.95;;;;;;;;;;5016236;28;20037;-77
2021/03/17 01:48:02;;;;;;;14.75;9.10;;;;;;;;;;5018562;28;20049;-77
2021/03/17 01:50:31;;;;;;;15.40;9.63;;;5.10;99.90;;;;;;5021448;28;20033;-74
2021/03/17 01:53:04;;;;;;;15.50;9.43;;;5.30;99.90;;;;;;5016231;28;20049;-77
2021/03/17 01:55:29;;;;;;;16.23;10.20;;;5.30;99.90;;;;;;5012116;28;20037;-77
2021/03/17 01:57:55;;;;;;;15.82;9.50;;;;;;;;;;5022604;28;20096;-78
2021/03/17 02:00:22;;;;;;;16.38;9.50;;;;;;;;;;5009085;28;20037;-76
2021/03/17 02:02:50;;;;;;;15.82;10.05;;;5.30;99.90;;;;;;5018639;28;20397;-77
2021/03/17 02:05:17;;;;;;;15.52;10.00;;;5.30;99.90;;;;;;5016284;28;20573;-75
2021/03/17 02:07:44;;;;;;;14.80;9.27;;;;;;;;;;5017921;28;20318;-76
2021/03/17 02:10:13;;;;;;;15.95;9.85;;;5.30;99.90;;;;;;5019054;28;20099;-78
2021/03/17 02:12:57;;;;;;;16.23;9.55;;;5.30;99.90;;;;;;5019125;28;20142;-79
2021/03/17 02:15:47;;;;;;;15.25;9.40;;;3.10;99.90;;;;;;5028673;28;20037;-79
2021/03/17 02:18:46;;;;;;;15.87;9.43;;;5.80;99.90;;;;;;5018179;28;20041;-81
2021/03/17 02:21:33;;;;;;;16.10;9.88;;;5.20;99.90;;;;;;5029569;28;20033;-76
2021/03/17 02:24:23;;;;;;;17.13;9.95;;;5.20;99.90;;;;;;5021171;28;20064;-76
2021/03/17 02:26:49;;;;;;;17.93;10.07;;;;;;;;;;5016338;28;20052;-77
2021/03/17 02:29:48;;;;;;;17.75;10.07;;;5.20;99.90;;;;;;5020837;28;20061;-78
2021/03/17 02:32:31;;;;;;;17.20;9.88;;;5.10;99.90;;;;;;5016928;28;20025;-76
2021/03/17 02:35:03;;;;;;;18.17;9.93;;;5.20;99.90;;;;;;5022275;28;20466;-77
2021/03/17 02:37:31;;;;;;;17.02;9.90;;;5.10;99.90;;;;;;5014991;28;20033;-75
2021/03/17 02:40:21;;;;;;;18.92;10.90;;;5.20;99.90;;;;;;5013033;28;20040;-77
2021/03/17 02:43:03;;;;;;;17.88;10.23;;;5.00;99.90;;;;;;5024475;28;21325;-77
2021/03/17 02:45:31;;;;;;;19.35;11.15;;;5.20;99.90;;;;;;5008754;28;20038;-76
2021/03/17 02:48:08;;;;;;;19.63;10.90;;;5.10;99.90;;;;;;5021378;28;20527;-76
2021/03/17 02:50:35;;;;;;;16.98;9.80;;;5.20;99.90;;;;;;5009526;28;20039;-79
2021/03/17 02:53:03;;;;;;;17.58;10.30;;;5.20;99.90;;;;;;5013952;28;20120;-77
2021/03/17 02:55:33;;;;;;;17.60;10.38;;;5.30;99.90;;;;;;5013679;28;20034;-77
2021/03/17 02:58:00;;;;;;;20.03;11.07;;;;;;;;;;5016028;28;20029;-78
2021/03/17 03:00:29;;;;;;;17.13;10.25;;;5.20;99.90;;;;;;5015363;28;20029;-77
2021/03/17 03:02:57;;;;;;;18.05;10.55;;;5.10;99.90;;;;;;5006780;28;20123;-80
2021/03/17 03:05:23;;;;;;;18.25;10.38;;;;;;;;;;5010389;28;20041;-76
2021/03/17 03:07:52;;;;;;;18.38;10.45;;;5.10;99.90;;;;;;5014389;28;20025;-78
2021/03/17 03:10:20;;;;;;;19.15;10.25;;;5.10;99.90;;;;;;5014635;28;20029;-76
2021/03/17 03:12:49;;;;;;;19.20;10.52;;;5.10;99.90;;;;;;5023232;28;20041;-77
2021/03/17 03:15:19;;;;;;;17.15;10.77;;;5.10;99.90;;;;;;5007836;28;20033;-77
2021/03/17 03:17:46;;;;;;;17.17;10.05;;;5.10;99.90;;;;;;5016067;28;20071;-77
2021/03/17 03:20:16;;;;;;;17.83;10.98;;;5.20;99.90;;;;;;4995532;28;20387;-77
2021/03/17 03:22:44;;;;;;;17.95;9.90;;;5.10;99.90;;;;;;5007033;28;20042;-77
2021/03/17 03:25:10;;;;;;;17.67;9.98;;;;;;;;;;5012844;28;20069;-75
2021/03/17 03:27:37;;;;;;;17.25;9.75;;;5.10;99.90;;;;;;5010968;28;20029;-78
2021/03/17 03:30:12;;;;;;;17.92;10.40;;;5.10;99.90;;;;;;5023711;28;20494;-76
2021/03/17 03:32:39;;;;;;;19.17;9.82;;;5.20;99.90;;;;;;5016867;28;20075;-77
2021/03/17 03:35:06;;;;;;;16.05;10.05;;;5.10;99.90;;;;;;5025092;28;20073;-77
2021/03/17 03:37:32;;;;;;;17.65;9.43;;;;;;;;;;5024765;28;20822;-80
2021/03/17 03:39:58;;;;;;;15.77;9.32;;;5.10;99.90;;;;;;5012977;28;20518;-77
2021/03/17 03:42:24;;;;;;;18.33;10.57;;;;;;;;;;5006101;28;20053;-76
2021/03/17 03:44:50;;;;;;;15.93;9.63;;;;;;;;;;5009508;28;20653;-78
2021/03/17 03:47:16;;;;;;;17.95;10.65;;;;;;;;;;5026020;28;20099;-78
2021/03/17 03:49:42;;;;;;;17.92;10.43;;;5.10;99.90;;;;;;5016060;28;20473;-78
2021/03/17 03:52:15;;;;;;;21.70;10.57;;;5.00;99.90;;;;;;5008756;28;20454;-79
2021/03/17 03:55:06;;;;;;;17.15;10.45;;;5.00;99.90;;;;;;5010573;28;20083;-77
2021/03/17 03:57:37;;;;;;;18.90;10.52;;;5.00;99.90;;;;;;5007361;28;20332;-76
2021/03/17 04:00:08;;;;;;;17.85;10.70;;;4.90;99.90;;;;;;5022635;28;20033;-78
2021/03/17 04:02:39;;;;;;;18.40;11.27;;;5.00;99.90;;;;;;5007605;28;20064;-77
2021/03/17 04:05:07;;;;;;;18.83;11.13;;;4.90;99.90;;;;;;5010057;28;20030;-76
2021/03/17 04:07:36;;;;;;;18.55;11.00;;;4.90;99.90;;;;;;5011051;28;20078;-77
2021/03/17 04:10:04;;;;;;;18.10;11.10;;;4.80;99.90;;;;;;5013812;28;20127;-77
2021/03/17 04:12:36;;;;;;;19.42;11.13;;;4.90;99.90;;;;;;5013458;28;20516;-77
2021/03/17 04:15:04;;;;;;;20.23;11.77;;;4.90;99.90;;;;;;5009928;28;20034;-77
2021/03/17 04:17:39;;;;;;;19.10;11.20;;;4.90;99.90;;;;;;5013929;28;20511;-77
2021/03/17 04:20:14;;;;;;;18.65;10.77;;;4.90;99.90;;;;;;5013112;28;20036;-76
2021/03/17 04:22:41;;;;;;;20.67;11.88;;;;;;;;;;5016659;28;20121;-75
2021/03/17 04:25:09;;;;;;;19.02;11.02;;;4.90;99.90;;;;;;5011929;28;20041;-77
2021/03/17 04:27:36;;;;;;;19.70;11.43;;;4.90;99.90;;;;;;5007137;28;20054;-79
2021/03/17 04:30:06;;;;;;;18.42;11.25;;;5.00;99.90;;;;;;5016330;28;20083;-76
2021/03/17 04:32:34;;;;;;;18.23;10.73;;;5.00;99.90;;;;;;5015379;28;20033;-77
2021/03/17 04:35:01;;;;;;;17.52;10.77;;;5.00;99.90;;;;;;5010691;28;20123;-77
2021/03/17 04:37:29;;;;;;;19.20;11.43;;;5.00;99.90;;;;;;5007310;28;20053;-78
2021/03/17 04:39:56;;;;;;;18.27;11.20;;;4.90;99.90;;;;;;5010269;28;20033;-78
2021/03/17 04:42:23;;;;;;;19.73;11.95;;;5.00;99.90;;;;;;5008608;28;20462;-79
2021/03/17 04:44:49;;;;;;;20.48;12.25;;;5.00;99.90;;;;;;5011489;28;20034;-76
2021/03/17 04:47:17;;;;;;;19.00;11.07;;;4.90;99.90;;;;;;5012499;28;20056;-78
2021/03/17 04:49:44;;;;;;;18.15;11.02;;;5.00;99.90;;;;;;5015553;28;20057;-79
2021/03/17 04:52:14;;;;;;;19.08;11.43;;;5.00;99.90;;;;;;5010833;28;20038;-76
2021/03/17 04:54:40;;;;;;;18.13;10.77;;;5.00;99.90;;;;;;5004754;28;20069;-77
2021/03/17 04:57:10;;;;;;;19.20;11.13;;;7.40;99.90;;;;;;5010219;28;20521;-76
2021/03/17 04:59:38;;;;;;;19.73;11.30;;;4.90;99.90;;;;;;5013226;28;20447;-79
2021/03/17 05:02:04;;;;;;;18.80;11.48;;;5.00;99.90;;;;;;5008588;28;20038;-77
2021/03/17 05:04:32;;;;;;;18.75;11.32;;;5.00;99.90;;;;;;5022666;28;20630;-76
2021/03/17 05:06:58;;;;;;;18.70;11.05;;;4.90;99.90;;;;;;5009777;28;20041;-79
2021/03/17 05:09:24;;;;;;;19.05;11.55;;;;;;;;;;5004030;28;20034;-76
2021/03/17 05:11:50;;;;;;;18.02;10.43;;;5.00;99.90;;;;;;5005298;28;20030;-78
2021/03/17 05:14:18;;;;;;;18.83;10.82;;;4.90;99.90;;;;;;5004289;28;20046;-78
2021/03/17 05:16:44;;;;;;;20.15;11.50;;;4.90;99.90;;;;;;5012868;28;20038;-79
2021/03/17 05:19:12;;;;;;;17.65;11.05;;;5.00;99.90;;;;;;5010544;28;20119;-81
2021/03/17 05:21:39;;;;;;;18.48;10.90;;;5.00;99.90;;;;;;5009898;28;20030;-76
2021/03/17 05:24:05;;;;;;;21.85;12.00;;;5.00;99.90;;;;;;5012800;28;20045;-79
2021/03/17 05:26:34;;;;;;;19.50;11.27;;;5.00;99.90;;;;;;5010516;28;20045;-77
2021/03/17 05:29:00;;;;;;;17.13;10.27;;;;;;;;;;5015517;28;20045;-75
2021/03/17 05:31:27;;;;;;;17.23;10.10;;;5.00;99.90;;;;;;5018627;28;20052;-77
2021/03/17 05:33:53;;;;;;;17.33;10.48;;;5.00;99.90;;;;;;5008013;28;20045;-78
2021/03/17 05:36:19;;;;;;;19.25;11.00;;;4.90;99.90;;;;;;5014872;28;20052;-76
2021/03/17 05:38:44;;;;;;;17.75;10.50;;;5.00;99.90;;;;;;5009868;28;20045;-81
2021/03/17 05:41:11;;;;;;;15.23;9.60;;;5.00;99.90;;;;;;5014459;28;20033;-77
2021/03/17 05:43:38;;;;;;;14.05;8.68;;;5.00;99.90;;;;;;5016511;28;20048;-77
2021/03/17 05:46:07;;;;;;;16.92;9.45;;;5.00;99.90;;;;;;5015284;28;20486;-76
2021/03/17 05:48:33;;;;;;;14.48;8.98;;;;;;;;;;5024709;28;20049;-76
2021/03/17 05:51:00;;;;;;;18.08;10.32;;;7.20;99.90;;;;;;5010741;28;20086;-76
2021/03/17 05:53:26;;;;;;;18.35;10.93;;;5.00;99.90;;;;;;5016838;28;20045;-77
2021/03/17 05:55:52;;;;;;;16.98;10.45;;;5.10;99.90;;;;;;5015109;28;20041;-77
2021/03/17 05:58:21;;;;;;;18.88;11.00;;;5.10;99.90;;;;;;5016909;28;20578;-77
2021/03/17 06:00:46;;;;;;;21.30;10.75;;;5.00;99.90;;;;;;5012165;28;20344;-77
2021/03/17 06:03:13;;;;;;;17.63;10.35;;;5.10;99.90;;;;;;5013292;28;20482;-77
2021/03/17 06:05:39;;;;;;;16.83;10.20;;;5.10;99.90;;;;;;5018001;28;20100;-76
2021/03/17 06:08:13;;;;;;;16.63;10.02;;;5.10;99.90;;;;;;5029273;28;20385;-77
2021/03/17 06:10:39;;;;;;;16.73;10.18;;;5.10;99.90;;;;;;5015513;28;20080;-78
2021/03/17 06:13:11;;;;;;;16.48;9.68;;;5.10;99.90;;;;;;5017362;28;20029;-76
2021/03/17 06:15:42;;;;;;;16.30;9.82;;;5.10;99.90;;;;;;5010526;28;20052;-77
2021/03/17 06:18:49;;;;;;;19.13;10.65;;;5.00;99.90;;;;;;5014756;28;20029;-77
2021/03/17 06:21:18;;;;;;;16.10;10.48;;;5.10;99.90;;;;;;4999091;28;20116;-76
2021/03/17 06:23:50;;;;;;;19.40;11.15;;;5.10;99.90;;;;;;5024336;28;20067;-77
2021/03/17 06:26:18;;;;;;;19.75;11.15;;;5.10;99.90;;;;;;5022291;28;20029;-76
2021/03/17 06:28:44;;;;;;;20.40;11.60;;;5.10;99.90;;;;;;5020625;28;20084;-78
2021/03/17 06:31:11;;;;;;;20.23;10.65;;;;;;;;;;5022818;28;20033;-76
2021/03/17 06:33:41;;;;;;;22.15;12.13;;;5.20;99.90;;;;;;5022176;28;20571;-76
2021/03/17 06:36:19;;;;;;;19.23;10.52;;;5.20;99.90;;;;;;5026927;28;20443;-77
2021/03/17 06:38:46;;;;;;;18.77;11.13;;;5.30;99.90;;;;;;5022206;28;20025;-76
2021/03/17 06:41:13;;;;;;;17.77;10.10;;;5.30;99.90;;;;;;5024316;28;20025;-78
2021/03/17 06:43:41;;;;;;;17.02;10.75;;;5.30;99.90;;;;;;5021464;28;20561;-78
2021/03/17 06:46:12;;;;;;;17.33;9.48;;;5.40;99.90;;;;;;5020349;28;20038;-79
2021/03/17 06:48:39;;;;;;;15.73;9.50;;;5.40;99.90;;;;;;5029713;28;20545;-76
2021/03/17 06:51:19;;;;;;;16.25;9.05;;;5.40;99.90;;;;;;5023302;28;20056;-78
2021/03/17 06:53:47;;;;;;;16.42;9.50;;;5.50;99.90;;;;;;5020178;28;20045;-76
2021/03/17 06:56:27;;;;;;;13.35;8.52;;;5.40;99.90;;;;;;5002452;28;20064;-77
2021/03/17 06:58:59;;;;;;;15.75;9.25;;;5.60;99.90;;;;;;5010348;28;20041;-75
2021/03/17 07:01:40;;;;;;;14.80;9.10;;;5.60;99.90;;;;;;5015532;28;20037;-77
2021/03/17 07:04:12;;;;;;;;;;;5.60;99.90;;;;;;5031196;28;20613;-76
2021/03/17 07:06:43;;;;;;;15.02;9.27;;;5.70;99.90;;;;;;5015502;28;19913;-78
2021/03/17 07:09:13;;;;;;;14.00;8.77;;;5.70;99.90;;;;;;5020114;28;20030;-74
2021/03/17 07:11:39;;;;;;;15.00;8.73;;;;;;;;;;5018727;28;20038;-78
2021/03/17 07:14:06;;;;;;;15.00;9.00;;;;;;;;;;5034828;28;20037;-77
2021/03/17 07:16:47;;;;;;;14.80;8.63;;;5.80;99.90;;;;;;5015619;28;20065;-75
2021/03/17 07:19:35;;;;;;;14.90;8.55;;;5.90;99.90;;;;;;5014948;28;20393;-75
2021/03/17 07:22:18;;;;;;;14.43;9.05;;;5.80;99.90;;;;;;5018005;28;20067;-77
2021/03/17 07:24:45;;;;;;;13.43;8.02;;;6.30;99.90;;;;;;5033647;28;20040;-77
2021/03/17 07:27:20;;;;;;;14.00;8.55;;;5.90;99.90;;;;;;5016972;28;20037;-77
2021/03/17 07:30:05;;;;;;;14.93;9.48;;;5.90;99.90;;;;;;5014162;28;20040;-78
2021/03/17 07:33:03;;;;;;;14.63;8.63;;;5.90;99.90;;;;;;5012476;28;20411;-76
2021/03/17 07:35:31;;;;;;;20.20;9.30;;;6.00;99.90;;;;;;5016695;28;20025;-77
2021/03/17 07:38:12;;;;;;;18.77;9.07;;;6.00;99.90;;;;;;5020911;28;20048;-78
2021/03/17 07:40:43;;;;;;;16.05;8.77;;;6.00;99.90;;;;;;5018327;28;20053;-79
2021/03/17 07:43:09;;;;;;;;;;;6.00;99.90;;;;;;5017488;28;20041;-80
2021/03/17 07:45:35;;;;;;;12.50;8.18;;;6.10;99.90;;;;;;5030950;28;19924;-81
2021/03/17 07:48:05;;;;;;;14.07;8.75;;;5.90;99.90;;;;;;5019408;28;20041;-81
2021/03/17 07:50:31;;;;;;;13.02;8.60;;;5.90;99.90;;;;;;5016271;28;20065;-77
2021/03/17 07:53:00;;;;;;;13.35;8.40;;;5.90;99.90;;;;;;5016109;28;20029;-78
2021/03/17 07:55:28;;;;;;;13.68;8.65;;;5.90;99.90;;;;;;5014715;28;20087;-80
2021/03/17 07:57:56;;;;;;;12.95;8.45;;;5.90;99.90;;;;;;5016301;28;20041;-80
2021/03/17 08:00:23;;;;;;;16.80;9.27;;;5.90;99.90;;;;;;5019023;28;20427;-77
2021/03/17 08:02:50;;;;;;;13.95;9.02;;;;;;;;;;5015577;28;20076;-78
2021/03/17 08:05:19;;;;;;;13.35;8.90;;;6.10;99.90;;;;;;5024470;28;20056;-77
2021/03/17 08:07:46;;;;;;;12.40;8.18;;;6.10;99.90;;;;;;5021394;28;20033;-79
2021/03/17 08:10:12;;;;;;;13.50;7.95;;;;;;;;;;5020906;28;20037;-77
2021/03/17 08:12:41;;;;;;;12.70;8.00;;;6.20;99.90;;;;;;5034557;28;20556;-79
2021/03/17 08:15:07;;;;;;;16.08;9.73;;;6.20;99.90;;;;;;5014976;28;20075;-76
2021/03/17 08:17:35;;;;;;;16.13;8.73;;;6.20;99.90;;;;;;5024839;28;20052;-75
2021/03/17 08:20:27;;;;;;;13.82;8.82;;;6.30;99.90;;;;;;5013696;28;20040;-77
2021/03/17 08:22:54;;;;;;;13.27;8.90;;;6.50;99.90;;;;;;5014286;28;20056;-76
2021/03/17 08:25:37;;;;;;;12.90;8.40;;;6.50;99.90;;;;;;5018183;28;20578;-78
2021/03/17 08:28:55;;;;;;;12.18;8.10;;;6.50;99.90;;;;;;5012630;28;20533;-78
2021/03/17 08:31:36;;;;;;;12.70;8.55;;;6.50;99.90;;;;;;5007107;28;20041;-77
2021/03/17 08:34:21;;;;;;;;;;;6.50;99.90;;;;;;5024875;28;20068;-77
2021/03/17 08:36:57;;;;;;;14.55;8.02;;;6.50;99.90;;;;;;5012576;28;19913;-79
2021/03/17 08:39:29;;;;;;;13.57;8.52;;;6.60;99.90;;;;;;5012372;28;20583;-77
2021/03/17 08:42:06;;;;;;;11.68;7.53;;;6.70;99.90;;;;;;5015571;28;20093;-80
2021/03/17 08:44:45;;;;;;;12.07;7.88;;;6.80;99.90;;;;;;5018885;28;20030;-77
2021/03/17 08:47:30;;;;;;;12.70;8.13;;;6.80;99.90;;;;;;5013099;28;20455;-80
2021/03/17 08:50:22;;;;;;;12.65;8.35;;;6.80;99.90;;;;;;5010244;28;20395;-79
2021/03/17 08:52:49;;;;;;;14.48;8.35;;;6.80;99.90;;;;;;5007527;28;20038;-78
2021/03/17 08:55:15;;;;;;;13.02;8.18;;;;;;;;;;5013275;28;20042;-80
2021/03/17 08:57:51;;;;;;;13.13;7.78;;;;;;;;;;5017231;28;20073;-79
2021/03/17 09:00:41;;;;;;;12.45;7.70;;;6.90;99.90;;;;;;5014393;28;20462;-79
2021/03/17 09:03:07;;;;;;;11.85;7.20;;;7.00;99.90;;;;;;5013442;28;20037;-80
2021/03/17 09:05:33;;;;;;;12.63;8.02;;;7.10;99.90;;;;;;5013043;28;20030;-79
2021/03/17 09:08:09;;;;;;;12.73;7.68;;;7.00;99.90;;;;;;5017094;28;20696;-77
2021/03/17 09:10:48;;;;;;;12.57;6.97;;;7.10;99.90;;;;;;5017131;28;20572;-78
2021/03/17 09:13:35;;;;;;;9.55;6.65;;;7.20;99.90;;;;;;5018548;28;20037;-80
2021/03/17 09:16:04;;;;;;;10.52;7.22;;;7.20;99.90;;;;;;5012923;28;20046;-77
2021/03/17 09:18:30;;;;;;;12.68;7.63;;;7.30;99.90;;;;;;5013371;28;20057;-80
2021/03/17 09:20:56;;;;;;;10.15;7.05;;;7.20;99.90;;;;;;5016863;28;20030;-77
2021/03/17 09:23:23;;;;;;;10.90;7.30;;;8.40;99.90;;;;;;5016979;28;20045;-80
2021/03/17 09:25:57;;;;;;;9.82;6.70;;;7.20;99.90;;;;;;5022077;28;20042;-77
2021/03/17 09:28:28;;;;;;;11.75;6.45;;;7.30;99.90;;;;;;5021555;28;20049;-79
2021/03/17 09:30:58;;;;;;;;;;;7.30;99.90;;;;;;5016124;28;20045;-78
2021/03/17 09:33:30;;;;;;;9.35;6.20;;;7.40;99.90;;;;;;5013109;28;19921;-78
2021/03/17 09:35:56;;;;;;;8.23;5.45;;;;;;;;;;5010505;28;20612;-80
2021/03/17 09:38:24;;;;;;;8.68;5.88;;;7.60;99.90;;;;;;5013155;28;20041;-79
2021/03/17 09:40:54;;;;;;;9.65;5.45;;;7.70;99.90;;;;;;5015708;28;20025;-80
2021/03/17 09:43:35;;;;;;;8.27;4.97;;;7.80;99.90;;;;;;5019434;28;20079;-76
2021/03/17 09:46:20;;;;;;;9.27;5.68;;;7.90;99.90;;;;;;5019690;28;20040;-82
2021/03/17 09:48:47;;;;;;;8.98;5.45;;;7.90;99.90;;;;;;5013837;28;20457;-80
2021/03/17 09:51:18;;;;;;;9.07;5.80;;;7.90;99.90;;;;;;5015256;28;20138;-77
2021/03/17 09:53:44;;;;;;;;;;;8.00;99.90;;;;;;5015794;28;20133;-78
2021/03/17 09:56:11;;;;;;;7.60;4.80;;;8.10;98.70;;;;;;5014323;28;20016;-76
2021/03/17 09:58:38;;;;;;;7.35;4.82;;;8.10;99.70;;;;;;5017865;28;20120;-77
2021/03/17 10:01:22;;;;;;;6.15;3.72;;;8.30;99.10;;;;;;5015751;28;20038;-80
2021/03/17 10:03:48;;;;;;;5.50;3.67;;;8.30;98.40;;;;;;5014984;28;20414;-79
2021/03/17 10:06:14;;;;;;;7.43;3.70;;;8.40;97.00;;;;;;5018515;28;20783;-81
2021/03/17 10:08:41;;;;;;;10.65;5.95;;;8.50;97.20;;;;;;5014287;28;20176;-77
2021/03/17 10:11:13;;;;;;;9.93;5.88;;;8.40;98.50;;;;;;5015129;28;20044;-78
2021/03/17 10:13:39;;;;;;;10.27;6.25;;;8.10;99.90;;;;;;5009253;28;20049;-77
2021/03/17 10:16:07;;;;;;;8.07;5.07;;;8.00;99.90;;;;;;4994353;28;20034;-77
2021/03/17 10:18:33;;;;;;;8.85;5.35;;;;;;;;;;5016375;28;20641;-77
2021/03/17 10:20:59;;;;;;;9.40;5.07;;;8.00;99.90;;;;;;5028629;28;20038;-79
2021/03/17 10:23:25;;;;;;;8.27;4.85;;;;;;;;;;5014768;28;20473;-76
2021/03/17 10:25:51;;;;;;;8.35;4.60;;;8.50;98.70;;;;;;5011281;28;20034;-77
2021/03/17 10:28:18;;;;;;;7.10;4.13;;;8.50;99.50;;;;;;5015833;28;20557;-78
2021/03/17 10:30:49;;;;;;;6.30;3.85;;;8.70;97.10;;;;;;5015838;28;20095;-78
2021/03/17 10:33:20;;;;;;;5.57;3.22;;;8.90;96.40;;;;;;5020087;28;21171;-77
2021/03/17 10:35:47;;;;;;;5.55;3.45;;;8.90;96.50;;;;;;5021772;28;20458;-78
2021/03/17 10:38:13;;;;;;;5.38;3.25;;;;;;;;;;5025161;28;20518;-76
2021/03/17 10:40:40;;;;;;;6.03;3.15;;;9.00;96.30;;;;;;5018997;28;20044;-78
2021/03/17 10:43:09;;;;;;;6.50;3.67;;;;;;;;;;5025129;28;20029;-80
2021/03/17 10:45:41;;;;;;;6.82;3.45;;;8.80;96.40;;;;;;5034951;28;20204;-77
2021/03/17 10:48:15;;;;;;;5.18;3.17;;;9.00;96.30;;;;;;5027074;28;20049;-75
2021/03/17 10:50:41;;;;;;;5.75;3.40;;;9.10;95.60;;;;;;5005990;28;21027;-79
2021/03/17 10:53:17;;;;;;;5.70;3.05;;;7.50;95.60;;;;;;5012080;28;20041;-79
2021/03/17 10:55:44;;;;;;;6.15;2.80;;;9.00;96.50;;;;;;5012133;28;20102;-79
2021/03/17 10:58:11;;;;;;;4.95;2.80;;;9.00;97.20;;;;;;5014502;28;20104;-79
2021/03/17 11:00:37;;;;;;;8.60;3.00;;;9.00;97.30;;;;;;5018806;28;20044;-79
2021/03/17 11:03:19;;;;;;;5.43;2.92;;;7.10;97.70;;;;;;4989563;28;20044;-78
2021/03/17 11:05:44;;;;;;;5.75;3.47;;;8.70;98.30;;;;;;5007432;28;20033;-76
2021/03/17 11:08:11;;;;;;;5.20;3.42;;;8.40;99.60;;;;;;5015518;28;20029;-79
2021/03/17 11:10:48;;;;;;;6.07;3.40;;;8.20;99.50;;;;;;5012828;28;20950;-77
2021/03/17 11:13:17;;;;;;;7.20;4.07;;;8.10;99.90;;;;;;5009950;28;20125;-80
2021/03/17 11:16:04;;;;;;;4.43;2.85;;;8.10;99.90;;;;;;5022830;28;20124;-79
2021/03/17 11:18:32;;;;;;;5.55;3.13;;;8.10;99.90;;;;;;5017755;28;20040;-77
2021/03/17 11:21:08;;;;;;;5.15;2.90;;;8.10;99.90;;;;;;5015547;28;20044;-79
2021/03/17 11:23:38;;;;;;;5.00;3.25;;;8.30;99.70;;;;;;5000862;28;20518;-78
2021/03/17 11:26:05;;;;;;;;;;;8.20;99.40;;;;;;5010007;28;20051;-77
2021/03/17 11:28:38;;;;;;;5.60;3.20;;;8.00;99.90;;;;;;5005320;28;20368;-76
2021/03/17 11:31:06;;;;;;;5.25;3.35;;;8.10;99.90;;;;;;5012113;28;20063;-79
2021/03/17 11:33:36;;;;;;;5.45;2.75;;;7.90;99.90;;;;;;5007269;28;20041;-78
2021/03/17 11:36:03;;;;;;;4.40;2.28;;;7.70;99.90;;;;;;4998634;28;20061;-75
2021/03/17 11:38:30;;;;;;;3.08;1.70;;;8.80;99.90;;;;;;5017411;28;20438;-76
2021/03/17 11:40:58;;;;;;;3.83;2.10;;;7.40;99.90;;;;;;5009016;28;20092;-77
2021/03/17 11:43:26;;;;;;;3.95;2.22;;;7.30;99.90;;;;;;5010496;28;20687;-77
2021/03/17 11:45:53;;;;;;;3.35;2.03;;;7.10;99.90;;;;;;5007612;28;20395;-76
2021/03/17 11:48:19;;;;;;;3.35;2.00;;;7.10;99.90;;;;;;5010686;28;20045;-79
2021/03/17 11:50:48;;;;;;;2.97;1.95;;;7.10;99.90;;;;;;5011722;28;20077;-77
2021/03/17 11:53:15;;;;;;;2.80;1.50;;;7.10;99.90;;;;;;5027846;28;20029;-76
2021/03/17 11:55:42;;;;;;;2.88;1.98;;;7.20;99.90;;;;;;5015135;28;20134;-78
2021/03/17 11:58:09;;;;;;;2.78;1.85;;;7.20;99.90;;;;;;5015603;28;20065;-76
2021/03/17 12:00:35;;;;;;;4.35;2.22;;;;;;;;;;5015141;28;20041;-77
2021/03/17 12:03:01;;;;;;;3.22;2.15;;;7.60;99.90;;;;;;5026458;28;20037;-76
2021/03/17 12:05:29;;;;;;;3.47;2.22;;;7.70;99.90;;;;;;5010386;28;20049;-79
2021/03/17 12:07:56;;;;;;;3.05;1.92;;;;;;;;;;5014449;28;20045;-78
2021/03/17 12:10:23;;;;;;;4.90;2.40;;;8.40;99.90;;;;;;5013985;28;20033;-77
2021/03/17 12:12:49;;;;;;;3.13;2.10;;;8.60;99.90;;;;;;4997586;28;20050;-77
2021/03/17 12:15:20;;;;;;;3.33;2.22;;;8.60;99.90;;;;;;5016500;28;20053;-78
2021/03/17 12:17:46;;;;;;;3.92;2.50;;;;;;;;;;5016320;28;20487;-78
2021/03/17 12:20:14;;;;;;;2.85;1.88;;;9.10;99.80;;;;;;5013505;28;20060;-79
2021/03/17 12:22:39;;;;;;;3.13;1.55;;;9.30;99.00;;;;;;5010898;28;20114;-79
2021/03/17 12:25:07;;;;;;;2.15;1.42;;;9.40;98.70;;;;;;5008739;28;20038;-79
2021/03/17 12:27:34;;;;;;;2.00;1.48;;;9.80;96.80;;;;;;5005603;28;20048;-77
2021/03/17 12:30:00;;;;;;;1.98;1.50;;;11.40;97.60;;;;;;5013272;28;20041;-79
2021/03/17 12:32:26;;;;;;;2.42;1.48;;;;;;;;;;5012416;28;20498;-77
2021/03/17 12:34:53;;;;;;;1.25;1.05;;;10.30;93.50;;;;;;5010363;28;20129;-77
2021/03/17 12:37:18;;;;;;;2.13;1.48;;;12.10;93.70;;;;;;5026025;28;20091;-77
2021/03/17 12:39:45;;;;;;;1.67;1.10;;;10.00;93.00;;;;;;5020836;28;20037;-78
2021/03/17 12:42:10;;;;;;;2.40;1.20;;;9.90;93.20;;;;;;5019984;28;20044;-77
2021/03/17 12:44:37;;;;;;;1.95;1.23;;;9.80;94.30;;;;;;5018278;28;20585;-79
2021/03/17 12:47:04;;;;;;;2.55;1.20;;;9.50;98.00;;;;;;5020018;28;20030;-79
2021/03/17 12:49:30;;;;;;;1.52;1.17;;;9.40;97.10;;;;;;5010835;28;20030;-76
2021/03/17 12:51:55;;;;;;;1.80;1.30;;;9.20;98.30;;;;;;5016019;28;20414;-77
2021/03/17 12:54:22;;;;;;;2.10;1.30;;;;;;;;;;5013920;28;20056;-79
2021/03/17 12:56:48;;;;;;;2.75;1.20;;;8.90;98.40;;;;;;5016404;28;20438;-76
2021/03/17 12:59:14;;;;;;;1.33;0.90;;;9.00;99.30;;;;;;4998311;28;20045;-79
2021/03/17 13:01:40;;;;;;;1.33;0.90;;;9.40;96.30;;;;;;5016222;28;20498;-79
2021/03/17 13:04:06;;;;;;;1.05;0.80;;;9.40;96.50;;;;;;4982500;28;20643;-79
2021/03/17 13:06:33;;;;;;;1.30;0.95;;;9.60;96.40;;;;;;5001864;28;20033;-76
2021/03/17 13:09:03;;;;;;;1.42;1.00;;;11.10;96.70;;;;;;4997705;28;20462;-77
2021/03/17 13:11:33;;;;;;;2.15;1.00;;;14.10;96.20;;;;;;5010541;28;20034;-77
2021/03/17 13:13:59;;;;;;;1.48;0.85;;;10.00;94.30;;;;;;5023649;28;20045;-78
2021/03/17 13:16:25;;;;;;;1.35;0.90;;;10.00;93.60;;;;;;5011111;28;20033;-79